sensor_id;sensor_type;location;lat;lon;timestamp;temperature;humidity
12977;DHT22;6553;48.412;9.514;2022-09-12T00:01:58;21.70;68.40
12977;DHT22;6553;48.412;9.514;2022-09-12T00:04:24;21.60;68.20
12977;DHT22;6553;48.412;9.514;2022-09-12T00:06:51;21.60;68.20
12977;DHT22;6553;48.412;9.514;2022-09-12T00:09:17;21.60;68.30
12977;DHT22;6553;48.412;9.514;2022-09-12T00:11:44;21.60;68.30
12977;DHT22;6553;48.412;9.514;2022-09-12T00:14:14;21.60;68.20
12977;DHT22;6553;48.412;9.514;2022-09-12T00:16:41;21.60;68.20
12977;DHT22;6553;48.412;9.514;2022-09-12T00:19:08;21.60;68.20
12977;DHT22;6553;48.412;9.514;2022-09-12T00:21:36;21.60;68.20
12977;DHT22;6553;48.412;9.514;2022-09-12T00:24:03;21.60;68.20
12977;DHT22;6553;48.412;9.514;2022-09-12T00:26:30;21.60;68.20
12977;DHT22;6553;48.412;9.514;2022-09-12T00:28:56;21.60;68.20
12977;DHT22;6553;48.412;9.514;2022-09-12T00:31:23;21.60;68.20
12977;DHT22;6553;48.412;9.514;2022-09-12T00:33:53;21.60;68.20
12977;DHT22;6553;48.412;9.514;2022-09-12T00:36:22;21.60;68.10
12977;DHT22;6553;48.412;9.514;2022-09-12T00:38:49;21.60;68.10
12977;DHT22;6553;48.412;9.514;2022-09-12T00:41:21;21.60;68.10
12977;DHT22;6553;48.412;9.514;2022-09-12T00:43:57;21.60;68.10
12977;DHT22;6553;48.412;9.514;2022-09-12T00:49:15;21.60;68.10
12977;DHT22;6553;48.412;9.514;2022-09-12T00:52:07;21.50;68.00
12977;DHT22;6553;48.412;9.514;2022-09-12T00:54:39;21.60;68.90
12977;DHT22;6553;48.412;9.514;2022-09-12T00:57:13;21.50;68.00
12977;DHT22;6553;48.412;9.514;2022-09-12T01:02:42;21.50;67.90
12977;DHT22;6553;48.412;9.514;2022-09-12T01:05:10;21.60;68.10
12977;DHT22;6553;48.412;9.514;2022-09-12T01:07:38;21.60;68.10
12977;DHT22;6553;48.412;9.514;2022-09-12T01:10:06;21.60;68.10
12977;DHT22;6553;48.412;9.514;2022-09-12T01:12:34;21.50;68.00
12977;DHT22;6553;48.412;9.514;2022-09-12T01:15:04;21.50;68.00
12977;DHT22;6553;48.412;9.514;2022-09-12T01:20:47;21.50;67.90
12977;DHT22;6553;48.412;9.514;2022-09-12T01:29:57;21.50;67.90
12977;DHT22;6553;48.412;9.514;2022-09-12T01:38:55;21.50;67.90
12977;DHT22;6553;48.412;9.514;2022-09-12T01:48:04;21.50;67.80
12977;DHT22;6553;48.412;9.514;2022-09-12T01:50:42;21.50;67.80
12977;DHT22;6553;48.412;9.514;2022-09-12T01:53:16;21.50;67.70
12977;DHT22;6553;48.412;9.514;2022-09-12T01:56:15;21.50;67.80
12977;DHT22;6553;48.412;9.514;2022-09-12T01:59:04;21.50;67.70
12977;DHT22;6553;48.412;9.514;2022-09-12T02:01:51;21.50;67.80
12977;DHT22;6553;48.412;9.514;2022-09-12T02:04:32;21.50;67.70
12977;DHT22;6553;48.412;9.514;2022-09-12T02:07:10;21.50;67.70
12977;DHT22;6553;48.412;9.514;2022-09-12T02:09:53;21.50;67.70
12977;DHT22;6553;48.412;9.514;2022-09-12T02:12:28;21.50;67.70
12977;DHT22;6553;48.412;9.514;2022-09-12T02:15:03;21.50;67.70
12977;DHT22;6553;48.412;9.514;2022-09-12T02:17:37;21.50;67.70
12977;DHT22;6553;48.412;9.514;2022-09-12T02:20:28;21.40;67.60
12977;DHT22;6553;48.412;9.514;2022-09-12T02:22:59;21.40;67.60
12977;DHT22;6553;48.412;9.514;2022-09-12T02:25:28;21.50;67.70
12977;DHT22;6553;48.412;9.514;2022-09-12T02:28:07;21.40;67.60
12977;DHT22;6553;48.412;9.514;2022-09-12T02:39:46;21.40;67.60
12977;DHT22;6553;48.412;9.514;2022-09-12T02:42:12;21.40;67.40
12977;DHT22;6553;48.412;9.514;2022-09-12T02:44:38;21.40;67.50
12977;DHT22;6553;48.412;9.514;2022-09-12T02:47:10;21.40;67.40
12977;DHT22;6553;48.412;9.514;2022-09-12T02:49:39;21.40;67.50
12977;DHT22;6553;48.412;9.514;2022-09-12T02:52:05;21.40;67.50
12977;DHT22;6553;48.412;9.514;2022-09-12T02:54:31;21.40;67.50
12977;DHT22;6553;48.412;9.514;2022-09-12T02:56:57;21.40;67.40
12977;DHT22;6553;48.412;9.514;2022-09-12T02:59:24;21.40;67.50
12977;DHT22;6553;48.412;9.514;2022-09-12T03:10:31;21.40;67.40
12977;DHT22;6553;48.412;9.514;2022-09-12T03:14:04;21.40;67.40
12977;DHT22;6553;48.412;9.514;2022-09-12T03:22:45;21.40;67.30
12977;DHT22;6553;48.412;9.514;2022-09-12T03:32:09;21.40;67.30
12977;DHT22;6553;48.412;9.514;2022-09-12T03:34:35;21.40;67.30
12977;DHT22;6553;48.412;9.514;2022-09-12T03:37:01;21.40;67.20
12977;DHT22;6553;48.412;9.514;2022-09-12T03:39:27;21.40;67.30
12977;DHT22;6553;48.412;9.514;2022-09-12T03:41:53;21.40;67.30
12977;DHT22;6553;48.412;9.514;2022-09-12T03:44:20;21.40;67.30
12977;DHT22;6553;48.412;9.514;2022-09-12T03:46:46;21.40;67.20
12977;DHT22;6553;48.412;9.514;2022-09-12T03:49:12;21.40;67.20
12977;DHT22;6553;48.412;9.514;2022-09-12T03:51:39;21.40;67.30
12977;DHT22;6553;48.412;9.514;2022-09-12T03:54:05;21.40;67.20
12977;DHT22;6553;48.412;9.514;2022-09-12T03:56:31;21.30;67.20
12977;DHT22;6553;48.412;9.514;2022-09-12T03:58:57;21.40;67.20
12977;DHT22;6553;48.412;9.514;2022-09-12T04:01:22;21.40;67.20
12977;DHT22;6553;48.412;9.514;2022-09-12T04:03:50;21.40;67.20
12977;DHT22;6553;48.412;9.514;2022-09-12T04:06:19;21.30;67.00
12977;DHT22;6553;48.412;9.514;2022-09-12T04:08:51;21.30;67.00
12977;DHT22;6553;48.412;9.514;2022-09-12T04:11:19;21.30;67.00
12977;DHT22;6553;48.412;9.514;2022-09-12T04:13:46;21.30;67.20
12977;DHT22;6553;48.412;9.514;2022-09-12T04:16:14;21.30;67.10
12977;DHT22;6553;48.412;9.514;2022-09-12T04:18:40;21.30;67.10
12977;DHT22;6553;48.412;9.514;2022-09-12T04:21:11;21.30;67.10
12977;DHT22;6553;48.412;9.514;2022-09-12T04:23:39;21.30;67.10
12977;DHT22;6553;48.412;9.514;2022-09-12T04:26:06;21.30;67.10
12977;DHT22;6553;48.412;9.514;2022-09-12T04:28:33;21.30;67.10
12977;DHT22;6553;48.412;9.514;2022-09-12T04:31:02;21.30;67.90
12977;DHT22;6553;48.412;9.514;2022-09-12T04:33:29;21.30;67.10
12977;DHT22;6553;48.412;9.514;2022-09-12T04:35:55;21.30;67.00
12977;DHT22;6553;48.412;9.514;2022-09-12T04:38:21;21.30;67.00
12977;DHT22;6553;48.412;9.514;2022-09-12T04:40:46;21.30;67.00
12977;DHT22;6553;48.412;9.514;2022-09-12T04:43:12;21.30;66.90
12977;DHT22;6553;48.412;9.514;2022-09-12T04:45:38;21.30;66.90
12977;DHT22;6553;48.412;9.514;2022-09-12T04:48:04;21.30;66.80
12977;DHT22;6553;48.412;9.514;2022-09-12T04:50:29;21.30;66.80
12977;DHT22;6553;48.412;9.514;2022-09-12T04:52:55;21.30;66.90
12977;DHT22;6553;48.412;9.514;2022-09-12T04:55:21;21.30;67.00
12977;DHT22;6553;48.412;9.514;2022-09-12T04:57:49;21.30;66.90
12977;DHT22;6553;48.412;9.514;2022-09-12T05:00:16;21.30;66.80
12977;DHT22;6553;48.412;9.514;2022-09-12T05:02:42;21.30;66.90
12977;DHT22;6553;48.412;9.514;2022-09-12T05:05:09;21.30;66.90
12977;DHT22;6553;48.412;9.514;2022-09-12T05:07:35;21.20;66.80
12977;DHT22;6553;48.412;9.514;2022-09-12T05:10:01;21.30;66.90
12977;DHT22;6553;48.412;9.514;2022-09-12T05:12:29;21.30;66.90
12977;DHT22;6553;48.412;9.514;2022-09-12T05:14:56;21.20;66.80
12977;DHT22;6553;48.412;9.514;2022-09-12T05:17:22;21.20;66.80
12977;DHT22;6553;48.412;9.514;2022-09-12T05:19:47;21.30;67.00
12977;DHT22;6553;48.412;9.514;2022-09-12T05:22:13;21.30;67.00
12977;DHT22;6553;48.412;9.514;2022-09-12T05:24:39;21.30;67.00
12977;DHT22;6553;48.412;9.514;2022-09-12T05:27:08;21.20;66.80
12977;DHT22;6553;48.412;9.514;2022-09-12T05:29:34;21.20;66.70
12977;DHT22;6553;48.412;9.514;2022-09-12T05:32:01;21.30;66.90
12977;DHT22;6553;48.412;9.514;2022-09-12T05:34:27;21.30;66.90
12977;DHT22;6553;48.412;9.514;2022-09-12T05:36:53;21.30;66.80
12977;DHT22;6553;48.412;9.514;2022-09-12T05:39:18;21.30;66.80
12977;DHT22;6553;48.412;9.514;2022-09-12T05:41:44;21.30;66.70
12977;DHT22;6553;48.412;9.514;2022-09-12T05:44:12;21.30;67.00
12977;DHT22;6553;48.412;9.514;2022-09-12T05:46:41;21.30;66.70
12977;DHT22;6553;48.412;9.514;2022-09-12T05:49:11;21.30;66.70
12977;DHT22;6553;48.412;9.514;2022-09-12T05:51:40;21.20;66.60
12977;DHT22;6553;48.412;9.514;2022-09-12T05:54:10;21.20;66.60
12977;DHT22;6553;48.412;9.514;2022-09-12T05:56:42;21.30;66.80
12977;DHT22;6553;48.412;9.514;2022-09-12T05:59:14;21.30;66.80
12977;DHT22;6553;48.412;9.514;2022-09-12T06:01:44;21.30;66.80
12977;DHT22;6553;48.412;9.514;2022-09-12T06:04:10;21.20;66.70
12977;DHT22;6553;48.412;9.514;2022-09-12T06:06:39;21.30;66.80
12977;DHT22;6553;48.412;9.514;2022-09-12T06:09:06;21.30;66.80
12977;DHT22;6553;48.412;9.514;2022-09-12T06:11:34;21.20;66.70
12977;DHT22;6553;48.412;9.514;2022-09-12T06:14:01;21.20;66.70
12977;DHT22;6553;48.412;9.514;2022-09-12T06:16:30;21.20;66.70
12977;DHT22;6553;48.412;9.514;2022-09-12T06:18:59;21.20;66.70
12977;DHT22;6553;48.412;9.514;2022-09-12T06:21:27;21.20;66.70
12977;DHT22;6553;48.412;9.514;2022-09-12T06:23:55;21.20;66.70
12977;DHT22;6553;48.412;9.514;2022-09-12T06:26:23;21.30;66.80
12977;DHT22;6553;48.412;9.514;2022-09-12T06:28:52;21.20;66.60
12977;DHT22;6553;48.412;9.514;2022-09-12T06:31:21;21.20;66.70
12977;DHT22;6553;48.412;9.514;2022-09-12T06:33:51;21.20;66.70
12977;DHT22;6553;48.412;9.514;2022-09-12T06:36:25;21.20;66.70
12977;DHT22;6553;48.412;9.514;2022-09-12T06:38:54;21.30;66.80
12977;DHT22;6553;48.412;9.514;2022-09-12T06:41:26;21.30;66.80
12977;DHT22;6553;48.412;9.514;2022-09-12T06:43:53;21.30;66.80
12977;DHT22;6553;48.412;9.514;2022-09-12T06:46:20;21.20;66.70
12977;DHT22;6553;48.412;9.514;2022-09-12T06:48:46;21.30;66.80
12977;DHT22;6553;48.412;9.514;2022-09-12T06:51:14;21.30;66.80
12977;DHT22;6553;48.412;9.514;2022-09-12T06:53:42;21.30;66.70
12977;DHT22;6553;48.412;9.514;2022-09-12T06:56:12;21.30;66.70
12977;DHT22;6553;48.412;9.514;2022-09-12T06:58:44;21.30;66.70
12977;DHT22;6553;48.412;9.514;2022-09-12T07:01:30;21.30;66.70
12977;DHT22;6553;48.412;9.514;2022-09-12T07:04:01;21.30;66.70
12977;DHT22;6553;48.412;9.514;2022-09-12T07:06:30;21.30;66.70
12977;DHT22;6553;48.412;9.514;2022-09-12T07:09:03;21.30;66.70
12977;DHT22;6553;48.412;9.514;2022-09-12T07:11:33;21.30;66.70
12977;DHT22;6553;48.412;9.514;2022-09-12T07:14:02;21.40;66.90
12977;DHT22;6553;48.412;9.514;2022-09-12T07:16:30;21.40;66.90
12977;DHT22;6553;48.412;9.514;2022-09-12T07:18:58;21.40;66.90
12977;DHT22;6553;48.412;9.514;2022-09-12T07:21:27;21.40;66.90
12977;DHT22;6553;48.412;9.514;2022-09-12T07:23:53;21.40;66.90
12977;DHT22;6553;48.412;9.514;2022-09-12T07:26:21;21.40;66.90
12977;DHT22;6553;48.412;9.514;2022-09-12T07:28:50;21.40;67.00
12977;DHT22;6553;48.412;9.514;2022-09-12T07:31:22;21.40;67.00
12977;DHT22;6553;48.412;9.514;2022-09-12T07:33:49;21.40;67.00
12977;DHT22;6553;48.412;9.514;2022-09-12T07:36:21;21.40;67.00
12977;DHT22;6553;48.412;9.514;2022-09-12T07:38:54;21.50;67.00
12977;DHT22;6553;48.412;9.514;2022-09-12T07:41:23;21.50;67.00
12977;DHT22;6553;48.412;9.514;2022-09-12T07:43:55;21.50;67.00
12977;DHT22;6553;48.412;9.514;2022-09-12T07:46:23;21.50;66.90
12977;DHT22;6553;48.412;9.514;2022-09-12T07:48:51;21.50;66.80
12977;DHT22;6553;48.412;9.514;2022-09-12T07:51:19;21.60;66.90
12977;DHT22;6553;48.412;9.514;2022-09-12T07:53:46;21.60;66.80
12977;DHT22;6553;48.412;9.514;2022-09-12T07:56:14;21.70;66.90
12977;DHT22;6553;48.412;9.514;2022-09-12T07:58:41;21.70;66.80
12977;DHT22;6553;48.412;9.514;2022-09-12T08:01:16;21.70;66.70
12977;DHT22;6553;48.412;9.514;2022-09-12T08:03:48;21.70;66.70
12977;DHT22;6553;48.412;9.514;2022-09-12T08:06:18;21.80;66.80
12977;DHT22;6553;48.412;9.514;2022-09-12T08:08:46;21.80;66.80
12977;DHT22;6553;48.412;9.514;2022-09-12T08:11:15;21.80;66.80
12977;DHT22;6553;48.412;9.514;2022-09-12T08:13:42;21.80;66.70
12977;DHT22;6553;48.412;9.514;2022-09-12T08:16:19;21.80;66.80
12977;DHT22;6553;48.412;9.514;2022-09-12T08:18:47;21.80;67.50
12977;DHT22;6553;48.412;9.514;2022-09-12T08:21:14;21.80;66.80
12977;DHT22;6553;48.412;9.514;2022-09-12T08:23:43;21.80;66.70
12977;DHT22;6553;48.412;9.514;2022-09-12T08:26:10;21.90;66.80
12977;DHT22;6553;48.412;9.514;2022-09-12T08:28:37;21.80;66.70
12977;DHT22;6553;48.412;9.514;2022-09-12T08:31:10;21.80;66.70
12977;DHT22;6553;48.412;9.514;2022-09-12T08:33:39;21.90;66.90
12977;DHT22;6553;48.412;9.514;2022-09-12T08:36:09;21.90;66.90
12977;DHT22;6553;48.412;9.514;2022-09-12T08:38:39;21.90;67.00
12977;DHT22;6553;48.412;9.514;2022-09-12T08:41:44;21.80;66.90
12977;DHT22;6553;48.412;9.514;2022-09-12T08:47:11;21.90;67.00
12977;DHT22;6553;48.412;9.514;2022-09-12T08:50:04;21.80;66.80
12977;DHT22;6553;48.412;9.514;2022-09-12T08:57:57;21.90;67.00
12977;DHT22;6553;48.412;9.514;2022-09-12T09:00:34;21.80;66.90
12977;DHT22;6553;48.412;9.514;2022-09-12T09:03:26;21.80;67.00
12977;DHT22;6553;48.412;9.514;2022-09-12T09:06:22;21.80;67.00
12977;DHT22;6553;48.412;9.514;2022-09-12T09:12:50;21.90;67.20
12977;DHT22;6553;48.412;9.514;2022-09-12T09:18:31;21.80;67.00
12977;DHT22;6553;48.412;9.514;2022-09-12T09:21:20;21.90;67.20
12977;DHT22;6553;48.412;9.514;2022-09-12T09:23:58;21.90;67.20
12977;DHT22;6553;48.412;9.514;2022-09-12T09:29:18;21.80;67.20
12977;DHT22;6553;48.412;9.514;2022-09-12T09:31:58;21.80;67.30
12977;DHT22;6553;48.412;9.514;2022-09-12T09:34:28;21.90;67.30
12977;DHT22;6553;48.412;9.514;2022-09-12T09:42:59;21.80;67.30
12977;DHT22;6553;48.412;9.514;2022-09-12T09:45:39;21.80;67.40
12977;DHT22;6553;48.412;9.514;2022-09-12T09:48:36;21.80;67.50
12977;DHT22;6553;48.412;9.514;2022-09-12T09:51:06;21.80;67.40
12977;DHT22;6553;48.412;9.514;2022-09-12T09:56:43;21.80;67.40
12977;DHT22;6553;48.412;9.514;2022-09-12T09:59:10;21.90;67.50
12977;DHT22;6553;48.412;9.514;2022-09-12T10:01:46;21.80;67.70
12977;DHT22;6553;48.412;9.514;2022-09-12T10:04:38;21.90;67.50
12977;DHT22;6553;48.412;9.514;2022-09-12T10:07:06;21.90;67.40
12977;DHT22;6553;48.412;9.514;2022-09-12T10:12:42;21.80;67.60
12977;DHT22;6553;48.412;9.514;2022-09-12T10:15:24;21.90;67.50
12977;DHT22;6553;48.412;9.514;2022-09-12T10:17:52;21.90;67.50
12977;DHT22;6553;48.412;9.514;2022-09-12T10:23:35;21.90;67.50
12977;DHT22;6553;48.412;9.514;2022-09-12T10:26:09;21.90;67.50
12977;DHT22;6553;48.412;9.514;2022-09-12T10:28:40;21.90;67.70
12977;DHT22;6553;48.412;9.514;2022-09-12T10:31:13;21.90;67.80
12977;DHT22;6553;48.412;9.514;2022-09-12T10:33:48;21.90;67.80
12977;DHT22;6553;48.412;9.514;2022-09-12T10:36:19;21.90;67.70
12977;DHT22;6553;48.412;9.514;2022-09-12T10:38:57;21.90;67.50
12977;DHT22;6553;48.412;9.514;2022-09-12T10:41:26;21.90;67.60
12977;DHT22;6553;48.412;9.514;2022-09-12T10:44:14;21.90;67.30
12977;DHT22;6553;48.412;9.514;2022-09-12T10:46:50;21.90;67.50
12977;DHT22;6553;48.412;9.514;2022-09-12T10:51:49;21.90;67.60
12977;DHT22;6553;48.412;9.514;2022-09-12T10:54:18;21.90;67.80
12977;DHT22;6553;48.412;9.514;2022-09-12T11:00:08;21.90;67.80
12977;DHT22;6553;48.412;9.514;2022-09-12T11:05:58;21.90;68.00
12977;DHT22;6553;48.412;9.514;2022-09-12T11:11:45;22.00;68.50
12977;DHT22;6553;48.412;9.514;2022-09-12T11:20:34;21.90;68.00
12977;DHT22;6553;48.412;9.514;2022-09-12T11:34:49;21.90;67.80
12977;DHT22;6553;48.412;9.514;2022-09-12T11:37:57;21.90;67.80
12977;DHT22;6553;48.412;9.514;2022-09-12T11:40:41;21.90;67.80
12977;DHT22;6553;48.412;9.514;2022-09-12T11:43:47;21.90;67.90
12977;DHT22;6553;48.412;9.514;2022-09-12T11:52:03;22.00;67.50
12977;DHT22;6553;48.412;9.514;2022-09-12T11:55:03;21.90;67.80
12977;DHT22;6553;48.412;9.514;2022-09-12T11:57:53;21.90;67.60
12977;DHT22;6553;48.412;9.514;2022-09-12T12:00:28;21.90;67.40
12977;DHT22;6553;48.412;9.514;2022-09-12T12:05:30;22.00;67.60
12977;DHT22;6553;48.412;9.514;2022-09-12T12:08:05;22.00;67.50
12977;DHT22;6553;48.412;9.514;2022-09-12T12:10:53;22.00;67.40
12977;DHT22;6553;48.412;9.514;2022-09-12T12:13:43;21.90;67.50
12977;DHT22;6553;48.412;9.514;2022-09-12T12:21:42;22.00;67.30
12977;DHT22;6553;48.412;9.514;2022-09-12T12:24:25;22.00;67.10
12977;DHT22;6553;48.412;9.514;2022-09-12T12:26:56;22.00;67.00
12977;DHT22;6553;48.412;9.514;2022-09-12T12:34:35;22.00;67.40
12977;DHT22;6553;48.412;9.514;2022-09-12T12:47:40;22.00;67.00
12977;DHT22;6553;48.412;9.514;2022-09-12T12:52:59;22.00;67.40
12977;DHT22;6553;48.412;9.514;2022-09-12T12:55:49;22.00;67.40
12977;DHT22;6553;48.412;9.514;2022-09-12T12:58:32;21.90;67.00
12977;DHT22;6553;48.412;9.514;2022-09-12T13:01:12;22.00;67.10
12977;DHT22;6553;48.412;9.514;2022-09-12T13:03:43;22.00;66.60
12977;DHT22;6553;48.412;9.514;2022-09-12T13:06:35;22.00;66.80
12977;DHT22;6553;48.412;9.514;2022-09-12T13:09:05;22.00;66.80
12977;DHT22;6553;48.412;9.514;2022-09-12T13:11:38;22.00;67.80
12977;DHT22;6553;48.412;9.514;2022-09-12T13:14:06;22.00;67.20
12977;DHT22;6553;48.412;9.514;2022-09-12T13:17:14;22.00;67.00
12977;DHT22;6553;48.412;9.514;2022-09-12T13:19:45;22.00;66.70
12977;DHT22;6553;48.412;9.514;2022-09-12T13:22:12;22.00;66.50
12977;DHT22;6553;48.412;9.514;2022-09-12T13:24:43;22.00;66.80
12977;DHT22;6553;48.412;9.514;2022-09-12T13:27:24;22.00;66.70
12977;DHT22;6553;48.412;9.514;2022-09-12T13:30:08;22.00;66.60
12977;DHT22;6553;48.412;9.514;2022-09-12T13:32:39;22.00;66.80
12977;DHT22;6553;48.412;9.514;2022-09-12T13:35:10;22.00;66.60
12977;DHT22;6553;48.412;9.514;2022-09-12T13:41:07;22.00;67.50
12977;DHT22;6553;48.412;9.514;2022-09-12T13:43:46;22.00;66.30
12977;DHT22;6553;48.412;9.514;2022-09-12T13:46:16;22.00;66.20
12977;DHT22;6553;48.412;9.514;2022-09-12T13:48:49;22.00;66.00
12977;DHT22;6553;48.412;9.514;2022-09-12T13:51:28;22.00;66.20
12977;DHT22;6553;48.412;9.514;2022-09-12T13:53:58;22.00;66.70
12977;DHT22;6553;48.412;9.514;2022-09-12T13:56:27;22.00;66.70
12977;DHT22;6553;48.412;9.514;2022-09-12T13:58:55;22.00;66.70
12977;DHT22;6553;48.412;9.514;2022-09-12T14:01:38;22.00;67.20
12977;DHT22;6553;48.412;9.514;2022-09-12T14:04:23;22.00;65.90
12977;DHT22;6553;48.412;9.514;2022-09-12T14:07:18;22.00;66.10
12977;DHT22;6553;48.412;9.514;2022-09-12T14:09:58;22.00;66.20
12977;DHT22;6553;48.412;9.514;2022-09-12T14:12:36;22.00;66.00
12977;DHT22;6553;48.412;9.514;2022-09-12T14:15:43;22.00;66.40
12977;DHT22;6553;48.412;9.514;2022-09-12T14:18:25;22.00;66.10
12977;DHT22;6553;48.412;9.514;2022-09-12T14:20:54;22.00;66.10
12977;DHT22;6553;48.412;9.514;2022-09-12T14:23:31;22.00;66.00
12977;DHT22;6553;48.412;9.514;2022-09-12T14:26:01;22.00;66.10
12977;DHT22;6553;48.412;9.514;2022-09-12T14:28:33;22.00;65.80
12977;DHT22;6553;48.412;9.514;2022-09-12T14:33:51;22.00;66.10
12977;DHT22;6553;48.412;9.514;2022-09-12T14:36:35;22.10;66.30
12977;DHT22;6553;48.412;9.514;2022-09-12T14:39:16;22.00;65.80
12977;DHT22;6553;48.412;9.514;2022-09-12T14:41:50;22.00;65.60
12977;DHT22;6553;48.412;9.514;2022-09-12T14:44:26;22.00;65.80
12977;DHT22;6553;48.412;9.514;2022-09-12T14:46:54;22.00;65.80
12977;DHT22;6553;48.412;9.514;2022-09-12T14:49:33;22.00;65.90
12977;DHT22;6553;48.412;9.514;2022-09-12T14:52:03;22.00;66.20
12977;DHT22;6553;48.412;9.514;2022-09-12T14:57:03;22.00;65.70
12977;DHT22;6553;48.412;9.514;2022-09-12T14:59:50;22.00;66.00
12977;DHT22;6553;48.412;9.514;2022-09-12T15:09:48;22.10;66.00
12977;DHT22;6553;48.412;9.514;2022-09-12T15:12:14;22.10;65.60
12977;DHT22;6553;48.412;9.514;2022-09-12T15:14:40;22.00;65.10
12977;DHT22;6553;48.412;9.514;2022-09-12T15:17:06;22.10;65.30
12977;DHT22;6553;48.412;9.514;2022-09-12T15:19:31;22.00;65.40
12977;DHT22;6553;48.412;9.514;2022-09-12T15:21:57;22.00;65.50
12977;DHT22;6553;48.412;9.514;2022-09-12T15:24:23;22.00;65.30
12977;DHT22;6553;48.412;9.514;2022-09-12T15:26:49;22.10;65.30
12977;DHT22;6553;48.412;9.514;2022-09-12T15:29:15;22.10;65.20
12977;DHT22;6553;48.412;9.514;2022-09-12T15:31:45;22.10;65.10
12977;DHT22;6553;48.412;9.514;2022-09-12T15:34:11;22.00;64.90
12977;DHT22;6553;48.412;9.514;2022-09-12T15:36:37;22.00;64.80
12977;DHT22;6553;48.412;9.514;2022-09-12T15:39:03;22.00;64.80
12977;DHT22;6553;48.412;9.514;2022-09-12T15:41:36;22.00;64.60
12977;DHT22;6553;48.412;9.514;2022-09-12T15:44:08;22.00;64.80
12977;DHT22;6553;48.412;9.514;2022-09-12T15:46:36;22.10;64.90
12977;DHT22;6553;48.412;9.514;2022-09-12T15:49:02;22.00;64.90
12977;DHT22;6553;48.412;9.514;2022-09-12T15:51:28;22.00;64.90
12977;DHT22;6553;48.412;9.514;2022-09-12T15:53:54;22.10;64.90
12977;DHT22;6553;48.412;9.514;2022-09-12T15:56:21;22.00;64.70
12977;DHT22;6553;48.412;9.514;2022-09-12T15:58:48;22.00;64.70
12977;DHT22;6553;48.412;9.514;2022-09-12T16:01:16;22.10;64.90
12977;DHT22;6553;48.412;9.514;2022-09-12T16:03:45;22.10;65.00
12977;DHT22;6553;48.412;9.514;2022-09-12T16:06:11;22.00;64.90
12977;DHT22;6553;48.412;9.514;2022-09-12T16:08:39;22.00;64.90
12977;DHT22;6553;48.412;9.514;2022-09-12T16:11:26;22.00;65.50
12977;DHT22;6553;48.412;9.514;2022-09-12T16:13:53;22.00;64.70
12977;DHT22;6553;48.412;9.514;2022-09-12T16:16:19;22.00;64.50
12977;DHT22;6553;48.412;9.514;2022-09-12T16:18:45;22.10;64.70
12977;DHT22;6553;48.412;9.514;2022-09-12T16:21:11;22.00;64.40
12977;DHT22;6553;48.412;9.514;2022-09-12T16:23:37;22.10;64.50
12977;DHT22;6553;48.412;9.514;2022-09-12T16:26:05;22.00;64.40
12977;DHT22;6553;48.412;9.514;2022-09-12T16:28:31;22.00;64.50
12977;DHT22;6553;48.412;9.514;2022-09-12T16:31:03;22.10;64.60
12977;DHT22;6553;48.412;9.514;2022-09-12T16:33:30;22.00;64.50
12977;DHT22;6553;48.412;9.514;2022-09-12T16:36:02;22.00;64.60
12977;DHT22;6553;48.412;9.514;2022-09-12T16:38:32;22.00;64.60
12977;DHT22;6553;48.412;9.514;2022-09-12T16:41:02;22.00;64.70
12977;DHT22;6553;48.412;9.514;2022-09-12T16:43:31;22.00;64.80
12977;DHT22;6553;48.412;9.514;2022-09-12T16:46:03;22.00;64.70
12977;DHT22;6553;48.412;9.514;2022-09-12T16:48:49;22.00;64.60
12977;DHT22;6553;48.412;9.514;2022-09-12T16:51:29;22.00;64.40
12977;DHT22;6553;48.412;9.514;2022-09-12T16:53:56;22.00;64.70
12977;DHT22;6553;48.412;9.514;2022-09-12T16:56:23;22.00;64.50
12977;DHT22;6553;48.412;9.514;2022-09-12T16:58:49;22.00;64.60
12977;DHT22;6553;48.412;9.514;2022-09-12T17:01:25;22.00;64.70
12977;DHT22;6553;48.412;9.514;2022-09-12T17:03:56;22.00;64.80
12977;DHT22;6553;48.412;9.514;2022-09-12T17:06:23;22.00;64.80
12977;DHT22;6553;48.412;9.514;2022-09-12T17:08:51;22.00;64.80
12977;DHT22;6553;48.412;9.514;2022-09-12T17:11:24;22.10;65.00
12977;DHT22;6553;48.412;9.514;2022-09-12T17:13:57;22.00;64.90
12977;DHT22;6553;48.412;9.514;2022-09-12T17:16:24;22.00;64.80
12977;DHT22;6553;48.412;9.514;2022-09-12T17:18:51;22.00;64.80
12977;DHT22;6553;48.412;9.514;2022-09-12T17:21:19;22.00;64.80
12977;DHT22;6553;48.412;9.514;2022-09-12T17:23:46;22.00;64.80
12977;DHT22;6553;48.412;9.514;2022-09-12T17:26:12;22.10;64.90
12977;DHT22;6553;48.412;9.514;2022-09-12T17:28:39;22.00;64.80
12977;DHT22;6553;48.412;9.514;2022-09-12T17:31:08;22.00;65.00
12977;DHT22;6553;48.412;9.514;2022-09-12T17:33:35;22.00;64.80
12977;DHT22;6553;48.412;9.514;2022-09-12T17:36:08;22.00;64.90
12977;DHT22;6553;48.412;9.514;2022-09-12T17:38:40;22.00;64.90
12977;DHT22;6553;48.412;9.514;2022-09-12T17:41:22;22.00;65.00
12977;DHT22;6553;48.412;9.514;2022-09-12T17:43:51;22.10;65.10
12977;DHT22;6553;48.412;9.514;2022-09-12T17:46:25;22.00;65.00
12977;DHT22;6553;48.412;9.514;2022-09-12T17:48:59;22.00;64.90
12977;DHT22;6553;48.412;9.514;2022-09-12T17:51:27;22.00;65.00
12977;DHT22;6553;48.412;9.514;2022-09-12T17:54:15;22.00;64.90
12977;DHT22;6553;48.412;9.514;2022-09-12T17:56:46;22.00;64.90
12977;DHT22;6553;48.412;9.514;2022-09-12T17:59:19;22.00;64.90
12977;DHT22;6553;48.412;9.514;2022-09-12T18:01:46;22.00;65.00
12977;DHT22;6553;48.412;9.514;2022-09-12T18:04:31;22.00;65.00
12977;DHT22;6553;48.412;9.514;2022-09-12T18:06:57;22.00;65.00
12977;DHT22;6553;48.412;9.514;2022-09-12T18:09:25;22.00;65.00
12977;DHT22;6553;48.412;9.514;2022-09-12T18:11:52;22.00;65.00
12977;DHT22;6553;48.412;9.514;2022-09-12T18:14:19;22.00;65.00
12977;DHT22;6553;48.412;9.514;2022-09-12T18:16:46;22.00;65.00
12977;DHT22;6553;48.412;9.514;2022-09-12T18:19:12;22.00;65.00
12977;DHT22;6553;48.412;9.514;2022-09-12T18:21:38;22.00;65.00
12977;DHT22;6553;48.412;9.514;2022-09-12T18:24:04;22.00;65.00
12977;DHT22;6553;48.412;9.514;2022-09-12T18:26:31;22.00;64.90
12977;DHT22;6553;48.412;9.514;2022-09-12T18:28:57;22.00;65.00
12977;DHT22;6553;48.412;9.514;2022-09-12T18:31:28;22.00;65.00
12977;DHT22;6553;48.412;9.514;2022-09-12T18:33:55;22.00;65.00
12977;DHT22;6553;48.412;9.514;2022-09-12T18:36:24;22.00;65.00
12977;DHT22;6553;48.412;9.514;2022-09-12T18:38:50;22.00;65.00
12977;DHT22;6553;48.412;9.514;2022-09-12T18:41:18;22.00;65.00
12977;DHT22;6553;48.412;9.514;2022-09-12T18:43:47;22.00;65.00
12977;DHT22;6553;48.412;9.514;2022-09-12T18:46:15;22.00;65.00
12977;DHT22;6553;48.412;9.514;2022-09-12T18:48:42;22.00;65.00
12977;DHT22;6553;48.412;9.514;2022-09-12T18:51:10;22.00;65.10
12977;DHT22;6553;48.412;9.514;2022-09-12T18:53:39;22.00;65.10
12977;DHT22;6553;48.412;9.514;2022-09-12T18:56:08;22.00;65.10
12977;DHT22;6553;48.412;9.514;2022-09-12T18:58:38;22.00;65.10
12977;DHT22;6553;48.412;9.514;2022-09-12T19:01:15;22.00;65.10
12977;DHT22;6553;48.412;9.514;2022-09-12T19:03:42;22.00;65.20
12977;DHT22;6553;48.412;9.514;2022-09-12T19:06:15;22.00;65.20